KMMI/MMI METAR and TAF weather

Enter ICAO airport designator
Station Type Date Time Source
KMMI METAR 2021/07/26 12:35 UTC NOAA

KMMI 261235Z AUTO 00000KT 6SM BR SCT002 BKN055 24/24 A3004 RMK A01


Station Type Date Time Source
KMMI Decoded METAR 2021/07/26 12:35 UTC NOAA

Station name not available
Jul 26, 2021 - 08:35 AM EDT / 2021.07.26 1235 UTC
Wind: Calm:0
Visibility: 6 mile(s):0
Sky conditions: mostly cloudy
Weather: mist
Temperature: 75 F (24 C)
Dew Point: 75 F (24 C)
Relative Humidity: 100%
Pressure (altimeter): 30.04 in. Hg (1017 hPa)
ob: KMMI 261235Z AUTO 00000KT 6SM BR SCT002 BKN055 24/24 A3004 RMK A01
cycle: 12

Station Type Date Time Source
KMMI TAF UTC NOAA

Error!

Example: see airport list